createdAt,value
2018-05-23T00:02:14.113Z,16.02
2018-05-23T00:04:42.466Z,16.06
2018-05-23T00:07:11.487Z,16.00
2018-05-23T00:09:39.835Z,15.97
2018-05-23T00:12:08.211Z,15.97
2018-05-23T00:14:37.460Z,16.02
2018-05-23T00:17:05.896Z,15.92
2018-05-23T00:19:34.465Z,15.89
2018-05-23T00:22:03.081Z,15.85
2018-05-23T00:24:33.432Z,15.95
2018-05-23T00:27:01.753Z,15.81
2018-05-23T00:29:30.513Z,15.75
2018-05-23T00:31:58.848Z,15.72
2018-05-23T00:34:27.195Z,15.56
2018-05-23T00:36:56.146Z,15.49
2018-05-23T00:39:24.537Z,15.41
2018-05-23T00:41:52.825Z,15.29
2018-05-23T00:44:22.018Z,15.25
2018-05-23T00:46:50.348Z,15.30
2018-05-23T00:49:18.658Z,15.33
2018-05-23T00:51:46.994Z,15.33
2018-05-23T00:54:15.302Z,15.34
2018-05-23T00:56:43.670Z,15.35
2018-05-23T00:59:12.943Z,15.40
2018-05-23T01:01:41.303Z,15.43
2018-05-23T01:04:09.607Z,15.48
2018-05-23T01:06:38.144Z,15.51
2018-05-23T01:09:06.527Z,15.50
2018-05-23T01:11:36.030Z,15.38
2018-05-23T01:14:04.415Z,15.41
2018-05-23T01:16:32.729Z,15.38
2018-05-23T01:19:01.041Z,15.15
2018-05-23T01:21:29.382Z,15.14
2018-05-23T01:23:57.698Z,15.12
2018-05-23T01:26:26.014Z,15.06
2018-05-23T01:28:55.123Z,15.03
2018-05-23T01:31:23.452Z,15.00
2018-05-23T01:33:51.756Z,15.02
2018-05-23T01:36:21.624Z,15.02
2018-05-23T01:38:49.949Z,15.14
2018-05-23T01:41:18.269Z,15.13
2018-05-23T01:43:46.639Z,15.22
2018-05-23T01:46:15.013Z,15.24
2018-05-23T01:48:55.083Z,15.09
2018-05-23T01:51:23.406Z,15.04
2018-05-23T01:53:51.737Z,15.14
2018-05-23T01:56:20.196Z,14.98
2018-05-23T01:58:48.501Z,14.92
2018-05-23T02:01:16.845Z,14.93
2018-05-23T02:03:45.284Z,15.03
2018-05-23T02:06:13.605Z,15.05
2018-05-23T02:08:41.963Z,14.98
2018-05-23T02:11:10.364Z,14.96
2018-05-23T02:13:38.717Z,14.91
2018-05-23T02:16:07.121Z,14.95
2018-05-23T02:18:35.513Z,14.90
2018-05-23T02:21:03.896Z,14.77
2018-05-23T02:23:32.351Z,14.81
2018-05-23T02:26:00.767Z,14.78
2018-05-23T02:28:29.114Z,14.82
2018-05-23T02:30:57.407Z,14.88
2018-05-23T02:33:25.830Z,14.95
2018-05-23T02:35:54.358Z,15.02
2018-05-23T02:38:22.676Z,15.04
2018-05-23T02:40:51.109Z,14.99
2018-05-23T02:43:19.437Z,14.86
2018-05-23T02:45:47.789Z,14.86
2018-05-23T02:48:16.175Z,14.82
2018-05-23T02:50:44.537Z,14.72
2018-05-23T02:53:12.919Z,14.70
2018-05-23T02:55:41.923Z,14.71
2018-05-23T02:58:10.294Z,14.74
2018-05-23T03:00:38.678Z,14.65
2018-05-23T03:03:07.518Z,14.74
2018-05-23T03:05:35.822Z,14.67
2018-05-23T03:08:04.115Z,14.64
2018-05-23T03:10:32.485Z,14.65
2018-05-23T03:13:00.790Z,14.62
2018-05-23T03:15:29.117Z,14.69
2018-05-23T03:17:57.469Z,14.70
2018-05-23T03:20:25.788Z,14.73
2018-05-23T03:22:54.085Z,14.71
2018-05-23T03:25:22.438Z,14.75
2018-05-23T03:27:50.765Z,14.75
2018-05-23T03:30:19.094Z,14.77
2018-05-23T03:32:47.556Z,14.75
2018-05-23T03:35:15.865Z,14.71
2018-05-23T03:37:44.240Z,14.76
2018-05-23T03:40:12.768Z,14.79
2018-05-23T03:42:41.103Z,14.83
2018-05-23T03:45:09.485Z,14.83
2018-05-23T03:47:37.844Z,14.80
2018-05-23T03:50:06.236Z,14.88
2018-05-23T03:52:34.605Z,14.86
2018-05-23T03:55:03.013Z,14.82
2018-05-23T03:57:31.342Z,14.88
2018-05-23T04:00:11.472Z,15.00
2018-05-23T04:02:51.804Z,14.97
2018-05-23T04:05:31.828Z,14.97
2018-05-23T04:08:01.042Z,15.16
2018-05-23T04:10:29.382Z,15.20
2018-05-23T04:12:57.829Z,15.25
2018-05-23T04:15:26.249Z,15.41
2018-05-23T04:17:54.492Z,15.38
2018-05-23T04:20:23.013Z,15.46
2018-05-23T04:22:51.332Z,15.43
2018-05-23T04:25:19.677Z,15.53
2018-05-23T04:27:48.545Z,15.57
2018-05-23T04:30:16.894Z,15.67
2018-05-23T04:32:45.400Z,15.73
2018-05-23T04:35:13.959Z,15.69
2018-05-23T04:37:42.311Z,15.79
2018-05-23T04:40:10.689Z,15.86
2018-05-23T04:42:39.863Z,15.76
2018-05-23T04:45:08.383Z,15.77
2018-05-23T04:47:36.971Z,15.82
2018-05-23T04:50:06.333Z,15.95
2018-05-23T04:52:34.804Z,16.05
2018-05-23T04:55:03.273Z,15.98
2018-05-23T04:57:32.612Z,15.87
2018-05-23T05:00:00.979Z,15.79
2018-05-23T05:02:29.227Z,15.80
2018-05-23T05:04:57.817Z,15.82
2018-05-23T05:07:26.180Z,15.94
2018-05-23T05:09:54.531Z,16.01
2018-05-23T05:12:23.666Z,16.04
2018-05-23T05:14:51.963Z,16.16
2018-05-23T05:17:20.302Z,16.26
2018-05-23T05:19:48.722Z,16.36
2018-05-23T05:22:17.214Z,16.47
2018-05-23T05:24:45.624Z,16.45
2018-05-23T05:27:13.987Z,16.79
2018-05-23T05:29:42.415Z,17.00
2018-05-23T05:32:10.742Z,17.03
2018-05-23T05:34:39.105Z,17.05
2018-05-23T05:37:07.541Z,17.03
2018-05-23T05:39:35.878Z,17.23
2018-05-23T05:42:04.240Z,17.14
2018-05-23T05:44:32.559Z,17.20
2018-05-23T05:47:00.934Z,17.25
2018-05-23T05:49:29.457Z,17.43
2018-05-23T05:51:57.828Z,17.67
2018-05-23T05:54:26.154Z,17.83
2018-05-23T05:56:54.583Z,17.85
2018-05-23T05:59:22.884Z,17.79
2018-05-23T06:01:51.321Z,17.95
2018-05-23T06:04:19.565Z,18.02
2018-05-23T06:06:47.897Z,17.98
2018-05-23T06:09:16.235Z,18.14
2018-05-23T06:11:44.654Z,18.23
2018-05-23T06:14:13.012Z,18.37
2018-05-23T06:16:41.413Z,18.52
2018-05-23T06:19:09.963Z,18.50
2018-05-23T06:21:38.409Z,18.74
2018-05-23T06:24:06.796Z,18.87
2018-05-23T06:26:35.213Z,18.83
2018-05-23T06:29:03.590Z,18.85
2018-05-23T06:31:31.921Z,18.88
2018-05-23T06:34:00.551Z,19.03
2018-05-23T06:36:28.883Z,19.23
2018-05-23T06:38:57.208Z,19.11
2018-05-23T06:41:25.596Z,19.27
2018-05-23T06:43:53.937Z,19.15
2018-05-23T06:46:22.256Z,19.30
2018-05-23T06:48:50.659Z,19.43
2018-05-23T06:51:19.041Z,19.68
2018-05-23T06:53:47.415Z,19.54
2018-05-23T06:56:16.356Z,19.76
2018-05-23T06:58:44.836Z,19.79
2018-05-23T07:01:13.390Z,19.86
2018-05-23T07:03:42.019Z,19.71
2018-05-23T07:06:10.526Z,19.84
2018-05-23T07:08:38.963Z,19.98
2018-05-23T07:11:07.569Z,20.10
2018-05-23T07:13:35.870Z,19.97
2018-05-23T07:16:08.581Z,20.18
2018-05-23T07:18:38.544Z,20.00
2018-05-23T07:21:06.971Z,19.94
2018-05-23T07:23:35.367Z,20.17
2018-05-23T07:26:03.743Z,19.88
2018-05-23T07:28:32.075Z,19.74
2018-05-23T07:31:00.396Z,19.93
2018-05-23T07:33:29.320Z,20.19
2018-05-23T07:35:57.638Z,20.09
2018-05-23T07:38:25.985Z,20.38
2018-05-23T07:40:54.702Z,20.19
2018-05-23T07:43:23.218Z,20.30
2018-05-23T07:45:51.562Z,20.30
2018-05-23T07:48:20.695Z,20.44
2018-05-23T07:50:49.036Z,20.71
2018-05-23T07:53:17.351Z,20.70
2018-05-23T07:55:45.714Z,20.87
2018-05-23T07:58:14.095Z,20.82
2018-05-23T08:00:42.486Z,20.31
2018-05-23T08:03:11.081Z,20.26
2018-05-23T08:05:39.412Z,20.20
2018-05-23T08:08:07.809Z,20.13
2018-05-23T08:10:43.351Z,20.00
2018-05-23T08:13:12.449Z,20.00
2018-05-23T08:15:40.933Z,20.11
2018-05-23T08:18:09.339Z,20.21
2018-05-23T08:20:37.681Z,20.32
2018-05-23T08:23:08.258Z,20.45
2018-05-23T08:25:36.618Z,20.28
2018-05-23T08:28:05.932Z,20.09
2018-05-23T08:30:34.353Z,20.03
2018-05-23T08:33:02.669Z,20.33
2018-05-23T08:35:31.002Z,20.51
2018-05-23T08:37:59.607Z,20.43
2018-05-23T08:40:27.907Z,20.60
2018-05-23T08:42:56.222Z,20.93
2018-05-23T08:45:24.564Z,21.09
2018-05-23T08:47:52.871Z,21.26
2018-05-23T08:50:21.196Z,20.81
2018-05-23T08:52:49.700Z,21.00
2018-05-23T08:55:18.009Z,20.92
2018-05-23T08:57:46.323Z,20.79
2018-05-23T09:00:14.739Z,21.14
2018-05-23T09:02:43.062Z,21.55
2018-05-23T09:05:11.392Z,21.59
2018-05-23T09:07:39.776Z,21.69
2018-05-23T09:10:08.107Z,21.29
2018-05-23T09:12:36.551Z,21.25
2018-05-23T09:15:05.649Z,21.31
2018-05-23T09:17:33.973Z,21.64
2018-05-23T09:20:02.304Z,21.65
2018-05-23T09:22:32.079Z,21.71
2018-05-23T09:25:00.395Z,21.61
2018-05-23T09:27:28.718Z,21.65
2018-05-23T09:29:57.921Z,21.93
2018-05-23T09:32:26.268Z,22.04
2018-05-23T09:34:54.592Z,21.98
2018-05-23T09:37:23.865Z,22.27
2018-05-23T09:39:52.170Z,22.49
2018-05-23T09:42:20.601Z,23.12
2018-05-23T09:44:49.750Z,23.06
2018-05-23T09:47:18.130Z,23.50
2018-05-23T09:49:46.557Z,23.18
2018-05-23T09:52:14.932Z,23.44
2018-05-23T09:54:43.248Z,24.82
2018-05-23T09:57:11.641Z,25.42
2018-05-23T09:59:40.113Z,25.79
2018-05-23T10:02:08.508Z,24.97
2018-05-23T10:04:37.080Z,24.50
2018-05-23T10:07:06.362Z,23.17
2018-05-23T10:09:34.729Z,23.12
2018-05-23T10:12:03.054Z,23.18
2018-05-23T10:14:31.437Z,23.19
2018-05-23T10:16:59.850Z,24.18
2018-05-23T10:19:28.170Z,24.10
2018-05-23T10:21:56.588Z,24.25
2018-05-23T10:24:24.915Z,24.79
2018-05-23T10:26:53.210Z,25.54
2018-05-23T10:29:21.574Z,25.35
2018-05-23T10:31:50.147Z,25.37
2018-05-23T10:34:18.534Z,25.75
2018-05-23T10:36:46.923Z,26.01
2018-05-23T10:39:15.299Z,25.69
2018-05-23T10:41:43.678Z,26.08
2018-05-23T10:44:12.806Z,25.46
2018-05-23T10:46:41.147Z,25.78
2018-05-23T10:49:09.487Z,26.76
2018-05-23T10:51:38.390Z,27.19
2018-05-23T10:54:06.570Z,27.35
2018-05-23T10:56:34.966Z,26.23
2018-05-23T10:59:03.349Z,26.78
2018-05-23T11:01:31.722Z,26.25
2018-05-23T11:04:00.045Z,26.79
2018-05-23T11:06:28.834Z,26.09
2018-05-23T11:08:57.175Z,24.99
2018-05-23T11:11:25.486Z,23.95
2018-05-23T11:13:54.276Z,24.50
2018-05-23T11:16:22.592Z,25.15
2018-05-23T11:18:50.905Z,25.55
2018-05-23T11:21:19.376Z,25.48
2018-05-23T11:23:47.677Z,26.54
2018-05-23T11:26:16.028Z,26.45
2018-05-23T11:28:45.157Z,26.84
2018-05-23T11:31:13.562Z,26.78
2018-05-23T11:33:42.059Z,26.97
2018-05-23T11:36:10.580Z,27.04
2018-05-23T11:38:39.197Z,26.79
2018-05-23T11:41:07.593Z,27.27
2018-05-23T11:43:36.061Z,27.65
2018-05-23T11:46:04.393Z,27.67
2018-05-23T11:48:33.405Z,28.63
2018-05-23T11:51:03.036Z,28.66
2018-05-23T11:53:31.390Z,27.71
2018-05-23T11:55:59.694Z,27.71
2018-05-23T11:58:28.590Z,27.61
2018-05-23T12:00:56.906Z,28.21
2018-05-23T12:03:25.246Z,28.33
2018-05-23T12:05:53.694Z,28.35
2018-05-23T12:08:22.017Z,27.36
2018-05-23T12:10:50.332Z,28.26
2018-05-23T12:13:19.655Z,28.47
2018-05-23T12:15:47.975Z,28.75
2018-05-23T12:18:16.430Z,26.74
2018-05-23T12:20:48.126Z,26.29
2018-05-23T12:23:25.260Z,26.95
2018-05-23T12:25:55.587Z,27.79
2018-05-23T12:28:24.024Z,28.07
2018-05-23T12:30:54.355Z,28.61
2018-05-23T12:33:25.709Z,28.30
2018-05-23T12:35:54.111Z,28.72
2018-05-23T12:38:22.395Z,28.17
2018-05-23T12:40:50.773Z,28.42
2018-05-23T12:43:22.878Z,28.43
2018-05-23T12:45:51.485Z,27.38
2018-05-23T12:48:20.218Z,28.18
2018-05-23T12:50:48.549Z,28.07
2018-05-23T12:53:17.503Z,28.51
2018-05-23T12:55:45.830Z,28.87
2018-05-23T12:58:14.206Z,29.33
2018-05-23T13:00:44.559Z,28.55
2018-05-23T13:03:12.909Z,29.48
2018-05-23T13:05:41.279Z,29.35
2018-05-23T13:08:09.652Z,29.95
2018-05-23T13:10:38.002Z,29.95
2018-05-23T13:13:06.349Z,29.81
2018-05-23T13:15:34.724Z,30.13
2018-05-23T13:18:03.074Z,29.71
2018-05-23T13:20:31.413Z,28.63
2018-05-23T13:23:00.544Z,28.00
2018-05-23T13:25:28.853Z,28.11
2018-05-23T13:27:57.161Z,28.12
2018-05-23T13:30:25.825Z,28.53
2018-05-23T13:32:54.225Z,27.72
2018-05-23T13:35:22.525Z,27.29
2018-05-23T13:37:50.918Z,27.70
2018-05-23T13:40:19.198Z,28.69
2018-05-23T13:42:47.540Z,28.58
2018-05-23T13:45:16.169Z,28.78
2018-05-23T13:47:47.768Z,29.15
2018-05-23T13:50:17.259Z,28.26
2018-05-23T13:52:45.615Z,28.65
2018-05-23T13:55:14.025Z,28.89
2018-05-23T13:57:43.191Z,29.65
2018-05-23T14:00:11.638Z,29.85
2018-05-23T14:02:39.968Z,30.30
2018-05-23T14:05:08.826Z,30.11
2018-05-23T14:07:37.181Z,30.22
2018-05-23T14:10:05.514Z,28.15
2018-05-23T14:12:33.895Z,28.24
2018-05-23T14:15:02.247Z,29.00
2018-05-23T14:17:30.567Z,29.38
2018-05-23T14:20:03.249Z,28.79
2018-05-23T14:22:33.384Z,27.92
2018-05-23T14:25:05.783Z,27.57
2018-05-23T14:27:34.368Z,27.90
2018-05-23T14:30:02.917Z,28.54
2018-05-23T14:32:32.188Z,27.75
2018-05-23T14:35:01.424Z,28.61
2018-05-23T14:37:35.150Z,28.98
2018-05-23T14:40:03.439Z,28.39
2018-05-23T14:42:31.781Z,29.44
2018-05-23T14:45:00.609Z,30.05
2018-05-23T14:47:28.943Z,29.01
2018-05-23T14:49:57.327Z,29.96
2018-05-23T14:52:25.676Z,30.42
2018-05-23T14:54:53.987Z,30.04
2018-05-23T14:57:22.293Z,29.23
2018-05-23T14:59:51.492Z,29.78
2018-05-23T15:02:19.911Z,29.09
2018-05-23T15:04:48.158Z,28.95
2018-05-23T15:07:16.792Z,29.65
2018-05-23T15:09:45.154Z,30.17
2018-05-23T15:12:13.498Z,29.85
2018-05-23T15:14:41.981Z,29.58
2018-05-23T15:17:10.488Z,28.25
2018-05-23T15:19:38.950Z,28.34
2018-05-23T15:22:07.418Z,28.68
2018-05-23T15:24:35.809Z,28.46
2018-05-23T15:27:04.129Z,28.27
2018-05-23T15:29:32.509Z,28.81
2018-05-23T15:32:00.885Z,28.86
2018-05-23T15:34:29.875Z,27.84
2018-05-23T15:36:59.833Z,27.58
2018-05-23T15:39:28.169Z,27.95
2018-05-23T15:41:56.487Z,28.65
2018-05-23T15:44:25.650Z,28.80
2018-05-23T15:46:53.997Z,28.03
2018-05-23T15:49:22.345Z,27.89
2018-05-23T15:51:51.509Z,28.74
2018-05-23T15:54:19.890Z,29.33
2018-05-23T15:56:48.207Z,29.68
2018-05-23T15:59:16.595Z,28.91
2018-05-23T16:01:45.082Z,28.33
2018-05-23T16:04:13.389Z,28.83
2018-05-23T16:06:42.163Z,28.06
2018-05-23T16:09:10.521Z,28.27
2018-05-23T16:11:39.066Z,28.27
2018-05-23T16:14:07.574Z,29.07
2018-05-23T16:16:36.045Z,27.96
2018-05-23T16:19:04.388Z,27.23
2018-05-23T16:21:33.151Z,27.54
2018-05-23T16:24:01.450Z,28.52
2018-05-23T16:26:29.818Z,28.81
2018-05-23T16:28:58.856Z,28.26
2018-05-23T16:31:27.153Z,27.96
2018-05-23T16:33:55.481Z,27.90
2018-05-23T16:36:23.996Z,27.82
2018-05-23T16:38:52.312Z,27.82
2018-05-23T16:41:20.658Z,27.70
2018-05-23T16:43:49.478Z,27.62
2018-05-23T16:46:18.050Z,27.75
2018-05-23T16:48:46.408Z,27.18
2018-05-23T16:51:15.469Z,27.01
2018-05-23T16:53:43.828Z,26.76
2018-05-23T16:56:12.188Z,26.00
2018-05-23T16:58:41.872Z,25.32
2018-05-23T17:01:10.299Z,24.85
2018-05-23T17:03:38.652Z,24.44
2018-05-23T17:06:07.315Z,24.22
2018-05-23T17:08:35.792Z,23.90
2018-05-23T17:11:04.123Z,23.73
2018-05-23T17:13:32.471Z,23.40
2018-05-23T17:16:00.861Z,23.27
2018-05-23T17:18:29.189Z,22.98
2018-05-23T17:20:57.636Z,23.19
2018-05-23T17:23:25.956Z,23.17
2018-05-23T17:25:54.410Z,22.98
2018-05-23T17:28:23.617Z,23.05
2018-05-23T17:30:51.918Z,23.04
2018-05-23T17:33:20.267Z,23.15
2018-05-23T17:35:49.575Z,23.07
2018-05-23T17:38:17.889Z,23.06
2018-05-23T17:40:46.419Z,23.13
2018-05-23T17:43:15.300Z,23.17
2018-05-23T17:45:43.705Z,23.04
2018-05-23T17:48:12.002Z,23.27
2018-05-23T17:50:40.402Z,23.81
2018-05-23T17:53:08.845Z,24.28
2018-05-23T17:55:38.053Z,24.82
2018-05-23T17:58:06.822Z,25.07
2018-05-23T18:00:35.245Z,25.23
2018-05-23T18:03:03.558Z,25.11
2018-05-23T18:05:31.893Z,25.03
2018-05-23T18:08:00.192Z,25.27
2018-05-23T18:10:28.550Z,25.46
2018-05-23T18:12:56.889Z,24.98
2018-05-23T18:15:25.254Z,24.64
2018-05-23T18:17:53.662Z,24.37
2018-05-23T18:20:23.359Z,24.20
2018-05-23T18:22:51.684Z,24.19
2018-05-23T18:25:20.007Z,24.25
2018-05-23T18:27:48.364Z,24.27
2018-05-23T18:30:16.772Z,24.00
2018-05-23T18:32:45.125Z,23.93
2018-05-23T18:35:13.581Z,23.84
2018-05-23T18:37:41.982Z,23.69
2018-05-23T18:40:10.561Z,23.59
2018-05-23T18:42:39.849Z,23.60
2018-05-23T18:45:08.298Z,23.52
2018-05-23T18:47:37.643Z,23.44
2018-05-23T18:50:07.683Z,23.27
2018-05-23T18:52:36.123Z,23.30
2018-05-23T18:55:04.458Z,23.31
2018-05-23T18:57:33.681Z,23.28
2018-05-23T19:00:02.014Z,23.02
2018-05-23T19:02:30.362Z,22.55
2018-05-23T19:04:59.583Z,22.21
2018-05-23T19:07:27.906Z,22.01
2018-05-23T19:09:56.247Z,21.76
2018-05-23T19:12:24.617Z,21.64
2018-05-23T19:14:52.948Z,21.44
2018-05-23T19:17:21.301Z,21.40
2018-05-23T19:19:49.931Z,21.27
2018-05-23T19:22:18.159Z,21.14
2018-05-23T19:24:46.584Z,21.13
2018-05-23T19:27:15.487Z,21.06
2018-05-23T19:29:43.908Z,20.87
2018-05-23T19:32:13.365Z,20.73
2018-05-23T19:34:42.839Z,20.67
2018-05-23T19:37:12.424Z,20.59
2018-05-23T19:39:51.406Z,20.69
2018-05-23T19:42:19.601Z,20.67
2018-05-23T19:44:47.959Z,20.60
2018-05-23T19:47:16.729Z,20.53
2018-05-23T19:49:45.032Z,20.51
2018-05-23T19:52:13.382Z,20.51
2018-05-23T19:54:41.952Z,20.36
2018-05-23T19:57:10.569Z,20.20
2018-05-23T19:59:38.904Z,20.20
2018-05-23T20:02:07.375Z,20.04
2018-05-23T20:04:35.801Z,19.99
2018-05-23T20:07:04.238Z,19.87
2018-05-23T20:09:32.611Z,19.73
2018-05-23T20:12:00.900Z,19.68
2018-05-23T20:14:29.583Z,19.56
2018-05-23T20:16:58.614Z,19.48
2018-05-23T20:19:28.030Z,19.38
2018-05-23T20:21:56.395Z,19.36
2018-05-23T20:24:24.811Z,19.35
2018-05-23T20:26:53.116Z,19.38
2018-05-23T20:29:21.548Z,19.39
2018-05-23T20:31:50.148Z,19.45
2018-05-23T20:34:18.559Z,19.62
2018-05-23T20:36:47.173Z,19.60
2018-05-23T20:39:20.395Z,19.67
2018-05-23T20:41:48.802Z,19.65
2018-05-23T20:44:18.048Z,19.53
2018-05-23T20:46:46.404Z,19.53
2018-05-23T20:49:15.301Z,19.46
2018-05-23T20:51:44.008Z,19.49
2018-05-23T20:54:12.409Z,19.48
2018-05-23T20:56:40.892Z,19.35
2018-05-23T20:59:13.337Z,19.32
2018-05-23T21:01:41.687Z,19.28
2018-05-23T21:04:10.318Z,19.29
2018-05-23T21:06:38.829Z,19.27
2018-05-23T21:09:07.327Z,19.21
2018-05-23T21:11:35.903Z,19.13
2018-05-23T21:14:04.933Z,19.09
2018-05-23T21:16:33.243Z,19.11
2018-05-23T21:19:01.593Z,19.08
2018-05-23T21:21:30.545Z,19.06
2018-05-23T21:23:58.894Z,19.00
2018-05-23T21:26:27.165Z,18.96
2018-05-23T21:28:55.547Z,18.93
2018-05-23T21:31:23.867Z,18.87
2018-05-23T21:33:52.175Z,18.88
2018-05-23T21:36:21.296Z,18.77
2018-05-23T21:38:49.607Z,18.73
2018-05-23T21:41:17.932Z,18.74
2018-05-23T21:43:46.306Z,18.68
2018-05-23T21:46:14.708Z,18.58
2018-05-23T21:48:43.050Z,18.51
2018-05-23T21:51:11.545Z,18.55
2018-05-23T21:53:39.825Z,18.47
2018-05-23T21:56:08.155Z,18.42
2018-05-23T21:58:36.884Z,18.38
2018-05-23T22:01:05.197Z,18.35
2018-05-23T22:03:33.525Z,18.27
2018-05-23T22:06:02.744Z,18.32
2018-05-23T22:08:31.067Z,18.25
2018-05-23T22:10:59.456Z,18.28
2018-05-23T22:13:27.800Z,18.25
2018-05-23T22:15:56.171Z,18.26
2018-05-23T22:18:24.548Z,18.23
2018-05-23T22:20:54.095Z,18.10
2018-05-23T22:23:22.403Z,18.16
2018-05-23T22:25:50.875Z,18.18
2018-05-23T22:28:19.972Z,18.16
2018-05-23T22:30:48.286Z,18.09
2018-05-23T22:33:16.684Z,18.00
2018-05-23T22:35:45.733Z,17.99
2018-05-23T22:38:14.142Z,17.93
2018-05-23T22:40:42.504Z,17.91
2018-05-23T22:43:11.302Z,17.88
2018-05-23T22:45:39.693Z,17.78
2018-05-23T22:48:08.047Z,17.75
2018-05-23T22:50:36.726Z,17.70
2018-05-23T22:53:05.396Z,17.69
2018-05-23T22:55:34.425Z,17.55
2018-05-23T22:58:03.858Z,17.56
2018-05-23T23:00:32.174Z,17.67
2018-05-23T23:03:00.477Z,17.66
2018-05-23T23:05:29.398Z,17.64
2018-05-23T23:07:57.724Z,17.63
2018-05-23T23:10:26.021Z,17.57
2018-05-23T23:12:54.920Z,17.48
2018-05-23T23:15:23.330Z,17.54
2018-05-23T23:17:51.656Z,17.49
2018-05-23T23:20:20.645Z,17.53
2018-05-23T23:22:48.935Z,17.53
2018-05-23T23:25:17.486Z,17.49
2018-05-23T23:27:46.989Z,17.50
2018-05-23T23:30:15.362Z,17.49
2018-05-23T23:32:43.741Z,17.40
2018-05-23T23:35:12.193Z,17.45
2018-05-23T23:37:40.596Z,17.38
2018-05-23T23:40:08.959Z,17.23
2018-05-23T23:42:37.453Z,17.23
2018-05-23T23:45:05.833Z,17.26
2018-05-23T23:47:34.165Z,17.26
2018-05-23T23:50:02.774Z,17.13
2018-05-23T23:52:31.117Z,17.11
2018-05-23T23:54:59.426Z,17.15
2018-05-23T23:57:27.753Z,16.98
2018-05-23T23:59:56.065Z,17.02
